Tiempo atmosférico en la estación meteorológica de Ferrol, A Coruña (4 m.)



Fecha
DESCASC
Temp. máxima en grados centígrados (hora)
DESCASC
Temp. mínima en grados centígrados (hora)
DESCASC
Temp. media en grados centígrados
DESCASC
Racha de viento máxima en m/sg (hora)
DESCASC
Velocidad máxima media en intervalos de 10 minutos(hora)
DESCASC
Precipitaciones diarias en mm
DESCASC
Precipitaciones de 00:00 a 06:00 en mm
DESCASC
Precipitaciones de 06:00 a 12:00 en mm
DESCASC
Precipitaciones de 12:00 a 18:00 en mm
DESCASC
Precipitaciones de 18:00 a 24:00 en mm
DESCASC
08-12-2019 14.4 (15:10) 8.6 (22:20) 11.5 7.78 (11:40) 4.72 (11:40) 12.3 0.4 11.3 0.6 0
07-12-2019 14.2 (13:50) 10.2 (04:00) 12.2 5.83 (15:10) 3.89 (15:40) 2 1 0.8 0 0.2
06-12-2019 12.9 (15:50) 8 (07:20) 10.4 4.72 (22:30) 2.78 (23:40) 0 0 0 0 0
05-12-2019 12.6 (13:40) 6 (00:00) 9.3 7.78 (13:50) 5 (14:30) 0 0 0 0 0
04-12-2019 12.5 (15:00) 0.9 (00:00) 6.7 6.11 (16:40) 4.72 (16:20) 0 0 0 0 0
03-12-2019 13.8 (14:10) 3.5 (00:00) 8.7 9.17 (12:00) 5.83 (10:30) 0 0 0 0 0
02-12-2019 12.6 (15:10) 9.1 (00:00) 10.9 15.83 (01:30) 10.83 (01:30) 0.3 0.2 0.1 0 0
01-12-2019 13.7 (12:50) 9.5 (00:00) 11.6 15.28 (16:00) 10 (15:50) 2.2 0.7 1.2 0.2 0.1
30-11-2019 -- (--) -- (--) -- -- (--) -- (--) -- -- -- 2.1 0.1
29-11-2019 -- (--) -- (--) -- -- (--) -- (--) -- 0.1 0.1 -- --
28-11-2019 14.7 (18:50) 11 (00:00) 12.8 11.67 (16:00) 7.22 (16:00) 16.4 0.2 0.1 16 0.1
27-11-2019 14.1 (13:00) 11.9 (00:00) 13 13.61 (04:40) 8.89 (02:00) 13.9 0.9 2.1 9.8 1.1
26-11-2019 17.3 (13:40) 12.6 (00:00) 14.9 23.33 (16:40) 13.89 (16:40) 4.5 0.1 0.1 3.7 0.6
25-11-2019 15.9 (23:20) 12.8 (00:00) 14.3 14.72 (22:40) 8.33 (22:40) 1 0.6 0.2 0.1 0.1
24-11-2019 15.3 (21:40) 8.7 (00:00) 12 13.89 (15:00) 9.44 (14:30) 3.9 0.1 0.1 2.4 1.3
23-11-2019 13.7 (12:30) 9.8 (00:00) 11.8 13.89 (00:20) 6.39 (00:10) 2.9 0.2 1.8 0.8 0.1
22-11-2019 15.3 (12:40) 10.4 (00:00) 12.8 18.61 (10:40) 10.83 (14:10) 37 5 11.9 3.1 17
21-11-2019 14.5 (13:40) 7.3 (00:00) 10.9 15 (12:10) 6.94 (13:30) 4.3 0.5 3.3 0.4 0.1
20-11-2019 11.7 (14:10) 6.7 (00:00) 9.2 13.33 (18:20) 6.94 (14:40) 2.1 0.1 0.6 0.7 0.7
19-11-2019 10.6 (15:20) 6.4 (00:00) 8.5 8.33 (12:00) 5.28 (11:00) 9.3 0 1.6 7.5 0.2
18-11-2019 13.5 (14:10) 6.5 (00:00) 10 8.06 (01:50) 5.28 (01:50) 4.8 3.2 1.4 0.1 0.1
17-11-2019 13.6 (14:00) 9.1 (00:00) 11.4 9.44 (16:00) 5 (21:10) 10.5 1.9 3.5 4.5 0.6
16-11-2019 11.8 (14:00) 5.2 (00:00) 8.5 10.28 (00:50) 6.11 (00:50) 6.8 3.4 0.1 2.9 0.4
15-11-2019 11.9 (12:00) 7.1 (00:00) 9.5 18.06 (00:20) 9.44 (00:10) 10.9 3.1 0 3.1 4.7
14-11-2019 12 (13:40) 5.6 (00:00) 8.8 19.17 (13:20) 8.61 (15:50) 21.4 3.6 14.1 3.5 0.2
13-11-2019 14.3 (14:00) 8.7 (00:00) 11.5 15.28 (19:50) 9.44 (19:50) 10.9 0.2 0.1 0.1 10.5
12-11-2019 15.5 (22:00) 9.7 (00:00) 12.6 11.94 (18:50) 6.11 (13:20) 42.3 0.2 2.9 29.1 10.1
11-11-2019 14.6 (06:10) 9.6 (22:30) 12.1 11.11 (07:10) 5.83 (07:10) 7.1 5.4 1.5 0.2 0

Gráficas

Temp. máximas Temp. mínimas Temp. medias Precipitaciones Rachas de viento máximas Velocidades máximas media en intervalos de 10 minutos

Datos horarios

Fecha y hora oficial Temperatura (ºC) Velocidad del viento (km/h) Dirección del viento Racha (km/h) Dirección de racha Precipitación (mm) Presión (hPa) Tendencia (hPa) Humedad (%)
2019-12-10 23:00:00 11.8 10 Sudoeste 24 Sudoeste 0 1020.4 -1.2 94
2019-12-10 22:00:00 12.2 17 Sudoeste 37 Sur 0 1020.8 -1.4 89
2019-12-10 21:00:00 12.4 26 Sudoeste 39 Sur 0 1021.2 -1.1 86
2019-12-10 20:00:00 12.7 23 Sudoeste 35 Sur 0 1021.6 -0.9 86
2019-12-10 19:00:00 12.7 22 Sudoeste 38 Sudoeste 0 1022.2 -0.3 80
2019-12-10 18:00:00 12.7 20 Sudoeste 35 Sudoeste 0 1022.3 -1.3 72
2019-12-10 17:00:00 13.3 17 Sudoeste 27 Sudoeste 0 1022.5 -2.1 71
2019-12-10 16:00:00 13.5 15 Sudoeste 29 Sudoeste 0 1022.5 -3 66
2019-12-10 15:00:00 13.6 16 Sudoeste 27 Sudoeste 0 1023.6 -2.6 66
2019-12-10 14:00:00 13.4 14 Sudoeste 23 Sudoeste 0 1024.6 -2.1 66
2019-12-10 13:00:00 12.6 8 Sudoeste 25 Sudoeste 0 1025.5 -1.4 66
2019-12-10 12:00:00 11.7 6 Sudoeste 18 Sudoeste 0 1026.2 -0.7 68
2019-12-10 11:00:00 10.6 3 Oeste 13 Sur 0 1026.7 -0.9 73
2019-12-10 10:00:00 9.3 8 Sudoeste 15 Sudoeste 0 1026.9 -1.1 80
2019-12-10 09:00:00 7.9 5 Sudoeste 13 Sudoeste 0 1026.9 -1 97
2019-12-10 08:00:00 6.8 2 Norte 8 Sudeste 0 1027.6 -0.7 97
2019-12-10 07:00:00 7.6 4 Sudeste 8 Sudeste 0 1028 -0.9 97
2019-12-10 06:00:00 7.1 4 Sudoeste 12 Sudoeste 0 1027.9 -1.5 97
2019-12-10 05:00:00 6.6 0 Calma 7 Sur 0 1028.3 -2.3 97
2019-12-10 04:00:00 6.1 0 Calma 6 Norte 0 1028.9 -2.2 97
2019-12-10 03:00:00 6.1 3 Nordeste 7 Nordeste 0 1029.4 -2 97
2019-12-10 02:00:00 6.4 0 Calma 6 Sur 0 1030.6 -1.5 97
2019-12-10 01:00:00 7.2 4 Sudoeste 7 Sudoeste 0 1031.1 -0.9 97
2019-12-10 00:00:00 7 0 Calma 4 Norte 0 1031.4 -0.9 97
2019-12-09 23:00:00 7.3 0 Calma 4 Este 0 1032.1 0.2 97
2019-12-09 22:00:00 7.7 0 Calma 5 Norte 0 1032 0.3 97
2019-12-09 21:00:00 8.3 0 Calma 5 Norte 0 1032.3 0.9 97
2019-12-09 20:00:00 9 0 Calma 4 Norte 0 1031.9 0.3 95
2019-12-09 19:00:00 10.3 0 Calma 6 Noroeste 0 1031.7 0.3 95
2019-12-09 18:00:00 11.5 0 Calma 13 Sudoeste 0 1031.4 -0.2 93
2019-12-09 17:00:00 13.4 11 Sudoeste 18 Sudoeste 0 1031.6 -0.2 88
2019-12-09 16:00:00 13.9 11 Sudoeste 18 Sudoeste 0 1031.4 -0.9 87
2019-12-09 15:00:00 13.4 8 Sudoeste 15 Sudoeste 0 1031.6 -1.4 88
2019-12-09 14:00:00 13.5 8 Sudoeste 13 Sudoeste 0 1031.8 -0.8 88
2019-12-09 13:00:00 13.3 8 Sudoeste 14 Sudoeste 0 1032.3 0.3 90
2019-12-09 12:00:00 12.5 8 Sudoeste 12 Sudoeste 0 1033 1.5 91
2019-12-09 11:00:00 11.7 5 Sudoeste 12 Sudoeste 0 1032.6 1.5 93
2019-12-09 10:00:00 11.1 8 Sudoeste 15 Sudoeste 0 1032 1.3 94
2019-12-09 09:00:00 11 9 Sudoeste 12 Sudoeste 0 1031.5 1.4 95
2019-12-09 08:00:00 10.7 0 Calma 4 Nordeste 0 1031.1 0.8 95
2019-12-09 07:00:00 10.6 3 Norte 11 Sur 0 1030.7 0.2 95
2019-12-09 06:00:00 10.7 9 Sudoeste 13 Sudoeste 0 1030.1 0.5 95
2019-12-09 05:00:00 10.6 5 Sudoeste 12 Sur 0 1030.3 0.3 95
2019-12-09 04:00:00 10.1 0 Calma 12 Sudoeste 0 1030.5 0.6 95
2019-12-09 03:00:00 9.9 3 Sur 13 Sudeste 0 1029.6 0.6 95
2019-12-09 02:00:00 9.5 2 Norte 14 Sur 0 1030 0.7 95
2019-12-09 01:00:00 9.4 2 Sudoeste 10 Sudoeste 0 1029.9 0.9 95
2019-12-09 00:00:00 9.9 5 Sudoeste 12 Sur 0 1029 0.6 95
2019-12-08 23:00:00 9.5 0 Calma 10 Sudoeste 0 1029.3 1.4 95
2019-12-08 22:00:00 8.9 0 Calma 7 Sudoeste 0 1029 1.7 95
2019-12-08 21:00:00 9.9 2 Oeste 6 Sudoeste 0 1028.4 1.6 95
2019-12-08 20:00:00 11 0 Calma 7 Oeste 0 1027.9 1.5 95
2019-12-08 19:00:00 10.9 3 Oeste 6 Sudoeste 0 1027.3 1.4 93
2019-12-08 18:00:00 11 6 Oeste 8 Oeste 0.1 1026.8 1.2 91
2019-12-08 17:00:00 11.6 2 Noroeste 8 Noroeste 0 1026.4 1 91
2019-12-08 16:00:00 13.5 4 Noroeste 14 Noroeste 0.1 1025.9 0.7 82
2019-12-08 15:00:00 14.1 8 Noroeste 20 Norte 0.1 1025.6 0.9 80
2019-12-08 14:00:00 13.8 8 Norte 21 Nordeste 0.1 1025.4 1.6 92
2019-12-08 13:00:00 13.5 5 Nordeste 15 Nordeste 0.2 1025.2 2.2 97
2019-12-08 12:00:00 13 12 Nordeste 28 Norte 0.8 1024.7 2.7 97
2019-12-08 11:00:00 13.9 11 Sudoeste 21 Sudoeste 2 1023.8 2.1 97
2019-12-08 10:00:00 13.3 9 Sur 15 Sur 1.7 1023 2 97
2019-12-08 09:00:00 13.3 6 Sudoeste 14 Sudoeste 3.1 1022 1 97
2019-12-08 08:00:00 13.2 8 Sudoeste 15 Sudoeste 3.4 1021.7 0.2 97
2019-12-08 07:00:00 13.4 11 Sudoeste 20 Sudoeste 0.3 1021 -0.7 97
2019-12-08 06:00:00 13.4 10 Sudoeste 18 Sudoeste 0.1 1021 -0.7 95
2019-12-08 05:00:00 13.7 10 Sudoeste 19 Sudoeste 0.1 1021.5 -0.6 95
2019-12-08 04:00:00 13.6 10 Sudoeste 18 Sudoeste 0.2 1021.7 -0.5 95
2019-12-08 03:00:00 13.8 11 Sudoeste 18 Sudoeste 0 1021.7 -0.7 95
2019-12-08 02:00:00 13.9 12 Sudoeste 20 Sudoeste 0 1022.1 -0.3 95
2019-12-08 01:00:00 13.4 7 Sudoeste 15 Sudoeste 0 1022.2 0.1 95
2019-12-08 00:00:00 13.4 5 Sudoeste 14 Sudoeste 0 1022.4 0.3 95
2019-12-07 23:00:00 13.6 5 Sudoeste 13 Oeste 0 1022.4 0.4 95
2019-12-07 22:00:00 13.3 4 Sudoeste 14 Sudoeste 0.2 1022.1 0 95
2019-12-07 21:00:00 13.6 9 Sudoeste 17 Sur 0 1022.1 0.2 94
2019-12-07 20:00:00 13.5 5 Sudoeste 15 Sudoeste 0 1022 0.1 95
2019-12-07 19:00:00 13.9 9 Sudoeste 15 Sudoeste 0 1022.1 0.7 95
2019-12-07 18:00:00 13.9 8 Sudoeste 15 Sudoeste 0 1021.9 0.5 95
2019-12-07 17:00:00 13.9 9 Sudoeste 20 Sudoeste 0 1021.9 -0.2 95
2019-12-07 16:00:00 14 12 Sudoeste 21 Sudoeste 0 1021.4 -1.5 94
2019-12-07 15:00:00 14.1 8 Sudoeste 15 Sur 0 1021.4 -2.2 94
2019-12-07 14:00:00 13.8 7 Sudoeste 14 Sudoeste 0 1022.1 -1.7 95
2019-12-07 13:00:00 12.2 7 Sudoeste 14 Sudoeste 0 1022.9 -0.5 97
2019-12-07 12:00:00 11.4 7 Sudoeste 15 Sudoeste 0.1 1023.6 0.9 97
2019-12-07 11:00:00 10.9 8 Sudoeste 13 Sudoeste 0.1 1023.8 1.1 97
2019-12-07 10:00:00 10.9 9 Sudoeste 19 Sudoeste 0.3 1023.4 1.1 97
2019-12-07 09:00:00 10.8 10 Sudoeste 16 Sudoeste 0.2 1022.7 0.4 97
2019-12-07 08:00:00 10.8 11 Sudoeste 16 Sudoeste 0.1 1022.7 0.1 97
2019-12-07 07:00:00 10.7 9 Sudoeste 15 Sudoeste 0 1022.3 -0.6 97
2019-12-07 06:00:00 10.7 5 Sudoeste 16 Sudoeste 0.1 1022.3 -0.4 97
2019-12-07 05:00:00 10.6 8 Sudoeste 13 Sudoeste 0.4 1022.6 -0.3 97
2019-12-07 04:00:00 10.3 8 Sudoeste 12 Sudoeste 0.5 1022.9 -0.1 97
2019-12-07 03:00:00 10.5 9 Sudoeste 14 Sudoeste 0 1022.7 -0.5 95
2019-12-07 02:00:00 11 5 Sudoeste 14 Sudoeste 0 1022.9 -0.5 95
2019-12-07 01:00:00 11 9 Sudoeste 14 Sudoeste 0 1023 -0.2 95
2019-12-07 00:00:00 10.7 9 Sudoeste 14 Sudoeste 0 1023.2 0 95
2019-12-06 23:00:00 10.8 9 Sudoeste 17 Sudoeste 0 1023.4 0.4 97
2019-12-06 22:00:00 10.1 5 Sudoeste 13 Sudoeste 0 1023.2 0.8 97
2019-12-06 21:00:00 9.9 2 Sudoeste 5 Sudoeste 0 1023.2 1.5 97
2019-12-06 20:00:00 10 3 Sudoeste 5 Sudoeste 0 1023 0.9 96
2019-12-06 19:00:00 10.3 2 Noroeste 4 Noroeste 0 1022.4 0.6 95
2019-12-06 18:00:00 11.4 0 Calma 12 Sudoeste 0 1021.7 -0.5 93
2019-12-06 17:00:00 12.4 10 Sudoeste 12 Sudoeste 0 1022.1 -0.6 92
2019-12-06 16:00:00 12.6 7 Sur 13 Sudoeste 0 1021.8 -1.9 92
2019-12-06 15:00:00 12.2 6 Sur 10 Sur 0 1022.2 -1.6 89
2019-12-06 14:00:00 12 5 Sudoeste 9 Sur 0 1022.7 -0.9 88
2019-12-06 13:00:00 11.4 4 Sudoeste 10 Sur 0 1023.7 -0.1 87
2019-12-06 12:00:00 10.3 8 Sudoeste 12 Sudoeste 0 1023.8 0.6 91
2019-12-06 11:00:00 9.2 4 Sudoeste 15 Sudoeste 0 1023.6 1.1 97
2019-12-06 10:00:00 8.5 3 Nordeste 4 Nordeste 0 1023.8 1.8 97
2019-12-06 09:00:00 8.1 0 Calma 4 Nordeste 0 1023.2 1.2 97
2019-12-06 08:00:00 8.4 2 Nordeste 5 Norte 0 1022.5 0.1 97
2019-12-06 07:00:00 8.2 0 Calma 8 Sudoeste 0 1022 -0.4 95
2019-12-06 06:00:00 8.6 2 Noroeste 4 Este 0 1022 -0.7 95
2019-12-06 05:00:00 9.3 0 Calma 8 Sudoeste 0 1022.4 -0.5 95
2019-12-06 04:00:00 9.6 0 Calma 7 Sur 0 1022.4 -0.6 94
2019-12-06 03:00:00 9.6 4 Sudoeste 13 Sudoeste 0 1022.7 0 93
2019-12-06 02:00:00 10.6 8 Sudoeste 11 Sudoeste 0 1022.9 -0.1 92
2019-12-06 01:00:00 12.1 5 Nordeste 11 Norte 0 1023 -0.1 87
2019-12-06 00:00:00 12.2 5 Nordeste 10 Nordeste 0 1022.7 -0.3 87
2019-12-05 23:00:00 12.3 6 Norte 14 Este 0 1023 0.2 86
2019-12-05 22:00:00 12.5 8 Norte 16 Nordeste 0 1023.1 0.8 86
2019-12-05 21:00:00 12.3 9 Norte 14 Nordeste 0 1023 0.5 86
2019-12-05 20:00:00 12.4 7 Nordeste 15 Nordeste 0 1022.8 0.7 87
2019-12-05 19:00:00 12.4 9 Nordeste 19 Nordeste 0 1022.3 0.4 88
2019-12-05 18:00:00 12.3 12 Norte 22 Nordeste 0 1022.5 0.1 89
2019-12-05 17:00:00 12.3 13 Nordeste 21 Nordeste 0 1022.1 -0.8 89
2019-12-05 16:00:00 12.2 17 Nordeste 27 Nordeste 0 1021.9 -1.4 89
2019-12-05 15:00:00 12.2 17 Norte 27 Norte 0 1022.4 -1 89
2019-12-05 14:00:00 12.4 14 Norte 28 Nordeste 0 1022.9 -0.2 89
2019-12-05 13:00:00 12.2 17 Nordeste 23 Nordeste 0 1023.3 1.2 89
2019-12-05 12:00:00 11.9 17 Nordeste 26 Norte 0 1023.4 1.9 91
2019-12-05 11:00:00 11.8 12 Norte 25 Nordeste 0 1023.1 2 87
2019-12-05 10:00:00 11.9 13 Nordeste 26 Nordeste 0 1022.1 1.3 82
2019-12-05 09:00:00 11.5 12 Nordeste 21 Nordeste 0 1021.5 1 82
2019-12-05 08:00:00 11.5 12 Nordeste 22 Nordeste 0 1021.1 0.8 84
2019-12-05 07:00:00 11.5 8 Norte 21 Nordeste 0 1020.8 0.3 88
2019-12-05 06:00:00 11.1 11 Nordeste 21 Nordeste 0 1020.5 0.5 91
2019-12-05 05:00:00 9.6 6 Norte 10 Norte 0 1020.3 0.4 94
2019-12-05 04:00:00 7.7 3 Nordeste 6 Este 0 1020.5 0.5 94
2019-12-05 03:00:00 7.7 0 Calma 8 Nordeste 0 1020 0.5 95
2019-12-05 02:00:00 7.1 3 Noroeste 4 Noroeste 0 1019.9 0.7 94
2019-12-05 01:00:00 6.1 0 Calma 6 Nordeste 0 1020 1.1 94
2019-12-05 00:00:00 6.2 3 Nordeste 8 Nordeste 0 1019.5 1.1 93
2019-12-04 23:00:00 6.6 0 Calma 5 Noroeste 0 1019.2 1.8 91
2019-12-04 22:00:00 7.9 0 Calma 9 Este 0 1018.9 2.2 82
2019-12-04 21:00:00 8.2 5 Nordeste 9 Nordeste 0 1018.4 2.6 78
2019-12-04 20:00:00 8.3 7 Norte 15 Norte 0 1017.4 1.9 69
2019-12-04 19:00:00 9.4 10 Norte 16 Norte 0 1016.7 1.8 66
2019-12-04 18:00:00 9.7 8 Norte 19 Norte 0 1015.8 1.3 69
2019-12-04 17:00:00 10.7 10 Norte 22 Nordeste 0 1015.5 0.7 66
2019-12-04 16:00:00 11.8 15 Nordeste 20 Nordeste 0 1014.9 -0.2 60
2019-12-04 15:00:00 12.3 12 Nordeste 17 Norte 0 1014.5 -0.8 60
2019-12-04 14:00:00 12 12 Nordeste 16 Nordeste 0 1014.8 -0.2 60
2019-12-04 13:00:00 10.4 2 Sur 10 Nordeste 0 1015.1 0.3 66
2019-12-04 12:00:00 8 8 Nordeste 12 Nordeste 0 1015.3 1.1 68
2019-12-04 11:00:00 5.9 6 Nordeste 9 Nordeste 0 1015 1.2 77
2019-12-04 10:00:00 2.8 9 Nordeste 12 Nordeste 0 1014.8 1.6 97
2019-12-04 09:00:00 1.2 5 Nordeste 10 Nordeste 0 1014.2 1.1 97
2019-12-04 08:00:00 1.3 3 Norte 8 Nordeste 0 1013.8 0.9 97
2019-12-04 07:00:00 1.3 4 Nordeste 9 Nordeste 0 1013.2 -0.1 97
2019-12-04 06:00:00 1.8 3 Norte 7 Nordeste 0 1013.1 -0.1 96
2019-12-04 05:00:00 1.9 2 Norte 8 Nordeste 0 1012.9 -0.8 95
2019-12-04 04:00:00 2.2 5 Nordeste 8 Norte 0 1013.3 -0.9 94
2019-12-04 03:00:00 2.8 5 Norte 8 Nordeste 0 1013.2 -1.3 93
2019-12-04 02:00:00 3.7 4 Nordeste 9 Norte 0 1013.7 -1 93
2019-12-04 01:00:00 3.9 4 Norte 10 Nordeste 0 1014.2 -0.4 93
2019-12-04 00:00:00 3.5 0 Calma 9 Nordeste 0 1014.5 -0.2 93
2019-12-03 23:00:00 4.4 5 Norte 8 Nordeste 0 1014.7 0 91
2019-12-03 22:00:00 5.7 4 Noroeste 13 Norte 0 1014.6 -0.4 86
2019-12-03 21:00:00 7.2 7 Norte 15 Nordeste 0 1014.7 -0.6 78
2019-12-03 20:00:00 8.1 9 Nordeste 17 Nordeste 0 1014.7 -0.6 75
2019-12-03 19:00:00 8.8 8 Norte 21 Nordeste 0 1015 -0.5 69
2019-12-03 18:00:00 10.3 13 Nordeste 21 Nordeste 0 1015.3 -0.7 60
2019-12-03 17:00:00 11.5 15 Nordeste 28 Este 0 1015.3 -1.3 54
2019-12-03 16:00:00 12.6 18 Nordeste 27 Este 0 1015.5 -2.5 49
2019-12-03 15:00:00 13.1 15 Nordeste 27 Este 0 1016 -2.9 46
2019-12-03 14:00:00 13.4 20 Este 30 Este 0 1016.6 -2.9 46
2019-12-03 13:00:00 13 12 Este 28 Nordeste 0 1018 -1.6 50
2019-12-03 12:00:00 11.6 20 Nordeste 33 Nordeste 0 1018.9 -1.2 57
2019-12-03 11:00:00 11 18 Este 31 Este 0 1019.5 -0.6 60
2019-12-03 10:00:00 9.9 17 Este 29 Este 0 1019.6 -0.3 66
2019-12-03 09:00:00 8.8 6 Nordeste 15 Nordeste 0 1020.1 -0.1 73
2019-12-03 08:00:00 8.9 6 Nordeste 24 Este 0 1020.1 -0.6 70
2019-12-03 07:00:00 9 13 Nordeste 30 Este 0 1019.9 -1.6 74
2019-12-03 06:00:00 9 18 Nordeste 27 Nordeste 0 1020.2 -1.8 75
2019-12-03 05:00:00 8.9 15 Nordeste 24 Nordeste 0 1020.7 -1.6 77
2019-12-03 04:00:00 9.2 10 Nordeste 26 Nordeste 0 1021.5 -1.4 75
2019-12-03 03:00:00 9.4 10 Nordeste 30 Nordeste 0 1022 -1.4 74
2019-12-03 02:00:00 9.6 14 Nordeste 26 Nordeste 0 1022.3 -1.3 73
2019-12-03 01:00:00 8.8 15 Nordeste 19 Nordeste 0 1022.9 -0.7 72
2019-12-03 00:00:00 9.5 6 Nordeste 18 Este 0 1023.4 -0.1 66
2019-12-02 23:00:00 9.3 8 Nordeste 37 Nordeste 0 1023.6 0.2 67
2019-12-02 22:00:00 9.7 23 Nordeste 39 Nordeste 0 1023.6 0.1 69
2019-12-02 21:00:00 9.8 23 Nordeste 36 Nordeste 0 1023.5 0.4 71
2019-12-02 20:00:00 9.8 20 Nordeste 36 Nordeste 0 1023.4 0.3 73
2019-12-02 19:00:00 9.9 17 Nordeste 37 Este 0 1023.5 0.6 71
2019-12-02 18:00:00 10.3 18 Nordeste 33 Nordeste 0 1023.1 -0.2 68
2019-12-02 17:00:00 11 24 Nordeste 49 Nordeste 0 1023.1 -0.9 66
2019-12-02 16:00:00 11.6 30 Nordeste 42 Nordeste 0 1022.9 -1.6 68
2019-12-02 15:00:00 12.2 22 Nordeste 41 Nordeste 0 1023.3 -2 60
2019-12-02 14:00:00 12.1 25 Nordeste 37 Nordeste 0 1024 -0.8 67
2019-12-02 13:00:00 11.7 22 Nordeste 39 Nordeste 0 1024.5 0.5 66
2019-12-02 12:00:00 10.8 26 Nordeste 45 Nordeste 0.1 1025.3 1.9 71
2019-12-02 11:00:00 10.7 22 Nordeste 36 Nordeste 0 1024.8 2 75
2019-12-02 10:00:00 10.6 20 Nordeste 31 Nordeste 0 1024 2 78
2019-12-02 09:00:00 10.6 19 Nordeste 39 Nordeste 0 1023.4 1.9 78
2019-12-02 08:00:00 10.9 26 Nordeste 41 Nordeste 0 1022.8 1.7 78
2019-12-02 07:00:00 10.9 23 Nordeste 41 Nordeste 0 1022 1 80
2019-12-02 06:00:00 10.9 23 Nordeste 39 Nordeste 0.1 1021.5 0.6 83
2019-12-02 05:00:00 10.8 19 Nordeste 36 Norte 0 1021.1 0.2 86
2019-12-02 04:00:00 10.6 25 Nordeste 45 Nordeste 0 1021 0 86
2019-12-02 03:00:00 10.3 30 Nordeste 57 Nordeste 0 1020.9 0.4 84
2019-12-02 02:00:00 10.6 27 Nordeste 57 Nordeste 0 1020.9 0.1 77
2019-12-02 01:00:00 11 28 Nordeste 45 Nordeste 0.1 1021 0.2 66
2019-12-02 00:00:00 10.9 26 Nordeste 42 Norte 0 1020.5 0.4 73
2019-12-01 23:00:00 10.7 23 Nordeste 40 Nordeste 0 1020.8 1.1 80
2019-12-01 22:00:00 10.4 26 Nordeste 53 Nordeste 0 1020.8 1.9 87
2019-12-01 21:00:00 11.4 29 Nordeste 48 Nordeste 0 1020.1 2.1 77
2019-12-01 20:00:00 11.8 26 Nordeste 45 Nordeste 0 1019.7 2.5 72
2019-12-01 19:00:00 11.6 23 Nordeste 37 Nordeste 0.1 1018.9 2.6 73
2019-12-01 18:00:00 11.2 16 Nordeste 38 Nordeste 0 1018 2.5 75
2019-12-01 17:00:00 11.8 32 Nordeste 51 Nordeste 0.1 1017.2 2 80
2019-12-01 16:00:00 12 32 Nordeste 55 Nordeste 0 1016.3 1.3 79
2019-12-01 15:00:00 12.9 28 Nordeste 50 Norte 0.1 1015.5 0.7 84
2019-12-01 14:00:00 12.8 27 Nordeste 44 Nordeste 0 1015.2 1 86
2019-12-01 13:00:00 13.2 21 Nordeste 33 Nordeste 0 1015 1.7 88
2019-12-01 12:00:00 12.4 17 Nordeste 34 Nordeste 0.9 1014.8 2.9 92
2019-12-01 11:00:00 11.8 4 Nordeste 19 Nordeste 0 1014.2 4.1 95
2019-12-01 10:00:00 11 12 Nordeste 27 Norte 0.1 1013.3 4.6 93
2019-12-01 09:00:00 10.2 10 Norte 16 Nordeste 0 1011.9 4.5 93
2019-12-01 08:00:00 9.9 8 Norte 12 Norte 0 1010.1 3.7 94
2019-12-01 07:00:00 9.9 5 Norte 18 Norte 0.2 1008.7 3 94
2019-12-01 06:00:00 9.9 10 Norte 15 Norte 0.3 1007.4 2.2 93
2019-12-01 05:00:00 10.7 7 Nordeste 12 Nordeste 0 1006.4 1.1 89
2019-12-01 04:00:00 10.6 2 Sur 15 Sudeste 0 1005.7 -0.2 89
2019-12-01 03:00:00 11 10 Sur 26 Sur 0.1 1005.2 -1.4 89
2019-12-01 02:00:00 10.8 15 Sur 31 Sur 0.3 1005.3 -2.5 91
2019-12-01 01:00:00 11.1 15 Sur 30 Sur 0 1005.9 -3 89
2019-12-01 00:00:00 11.2 13 Sudoeste 33 Sudoeste 0 1006.6 -3 89
2019-11-30 23:00:00 11.4 16 Sudoeste 33 Sudoeste 0 1007.8 -2.5 89
2019-11-30 22:00:00 11.9 19 Sur 28 Sudoeste 0 1008.9 -1.9 86
2019-11-30 21:00:00 12 17 Sudoeste 22 Sur 0.1 1009.6 -1.3 86
2019-11-30 20:00:00 12.6 18 Sur 36 Sudoeste 0 1010.3 -0.9 86
2019-11-30 19:00:00 13.2 18 Sudoeste 34 Sudoeste 0 1010.8 -0.7 81
2019-11-30 18:00:00 13.2 23 Sudoeste 44 Sudoeste 0 1010.9 -1 80
2019-11-30 17:00:00 14.1 27 Sudoeste 44 Sudoeste 0.1 1011.2 -1.6 75
2019-11-30 16:00:00 13.9 26 Sudoeste 40 Sudoeste 0 1011.5 -1.5 78
2019-11-30 15:00:00 12.8 14 Sudoeste 34 Sur 0 1011.9 -1.9 92
2019-11-30 14:00:00 10.2 11 Norte 30 Norte 2 1012.8 -0.9 92
2019-11-30 13:00:00 13 4 Sur 42 Sudoeste 0 1013 -- 81
2019-11-30 12:00:00 14 30 Sudoeste 48 Sudoeste 0 1013.8 -- 77
2019-11-30 11:00:00 13.9 17 Sudoeste 37 Sudoeste 0.1 1013.7 -- 84
2019-11-30 10:00:00 -- -- -- -- -- -- -- -- --
2019-11-30 09:00:00 -- -- -- -- -- -- -- -- --
2019-11-30 08:00:00 -- -- -- -- -- -- -- -- --
2019-11-30 07:00:00 -- -- -- -- -- -- -- -- --
2019-11-30 06:00:00 -- -- -- -- -- -- -- -- --
2019-11-30 05:00:00 -- -- -- -- -- -- -- -- --
2019-11-30 04:00:00 -- -- -- -- -- -- -- -- --
2019-11-30 03:00:00 -- -- -- -- -- -- -- -- --
2019-11-30 02:00:00 -- -- -- -- -- -- -- -- --
2019-11-30 01:00:00 -- -- -- -- -- -- -- -- --
2019-11-30 00:00:00 -- -- -- -- -- -- -- -- --
2019-11-29 23:00:00 -- -- -- -- -- -- -- -- --
2019-11-29 22:00:00 -- -- -- -- -- -- -- -- --
2019-11-29 21:00:00 -- -- -- -- -- -- -- -- --
2019-11-29 20:00:00 -- -- -- -- -- -- -- -- --
2019-11-29 19:00:00 -- -- -- -- -- -- -- -- --
2019-11-29 18:00:00 -- -- -- -- -- -- -- -- --
2019-11-29 17:00:00 -- -- -- -- -- -- -- -- --
2019-11-29 16:00:00 -- -- -- -- -- -- -- -- --
2019-11-29 15:00:00 -- -- -- -- -- -- -- -- --
2019-11-29 14:00:00 15.6 17 Sudoeste 25 Sudoeste 0 1017.7 -1.1 84
2019-11-29 13:00:00 15.2 15 Sur 24 Sur 0 1018.4 0 88
2019-11-29 12:00:00 14.7 14 Sur 21 Sur 0 1019 1.2 92
2019-11-29 11:00:00 13.1 3 Sudoeste 13 Sudoeste 0 1018.8 1.3 94
2019-11-29 10:00:00 12.1 8 Sudoeste 13 Oeste 0.1 1018.4 1.5 95
2019-11-29 09:00:00 11.6 6 Sudoeste 13 Sudoeste 0 1017.8 0.9 97
2019-11-29 08:00:00 11.9 6 Sudoeste 15 Sudoeste 0 1017.5 0.9 97
2019-11-29 07:00:00 11.1 6 Sudoeste 10 Sudoeste 0 1016.9 0.8 97
2019-11-29 06:00:00 11.2 2 Norte 8 Sur 0 1016.9 1.2 97
2019-11-29 05:00:00 12 0 Calma 8 Sudoeste 0 1016.6 1.2 97
2019-11-29 04:00:00 12.3 6 Sudoeste 8 Sudoeste 0.1 1016.1 1.2 97
2019-11-29 03:00:00 12.5 0 Calma 8 Sudeste 0 1015.7 1.3 97
2019-11-29 02:00:00 12.5 0 Calma 8 Oeste 0 1015.4 1.4 97
2019-11-29 01:00:00 12.6 4 Sudoeste 11 Sudoeste 0 1014.9 1.6 97
2019-11-29 00:00:00 12.4 0 Calma 5 Sur 0 1014.4 2.5 97
2019-11-28 23:00:00 12.2 0 Calma 16 Sur 0 1014 3.3 97
2019-11-28 22:00:00 12.7 8 Oeste 13 Oeste 0.1 1013.3 4.1 97
2019-11-28 21:00:00 12.7 2 Noroeste 4 Oeste 0 1011.9 4.1 97
2019-11-28 20:00:00 14 2 Sudoeste 21 Sur 0 1010.7 3.8 97
2019-11-28 19:00:00 14.6 12 Sur 23 Sudoeste 0 1009.2 3 97
2019-11-28 18:00:00 13.6 2 Sudeste 13 Sudoeste 0.4 1007.8 -0.1 97
2019-11-28 17:00:00 13.6 10 Sudoeste 33 Sudoeste 2.6 1006.9 -2.4 97
2019-11-28 16:00:00 12.8 26 Sudoeste 42 Sur 4.9 1006.2 -4.4 97
2019-11-28 15:00:00 12.6 2 Sudoeste 6 Noroeste 4.2 1007.9 -3.2 97
2019-11-28 14:00:00 12.7 3 Nordeste 8 Sudoeste 3.6 1009.3 -1.8 97
2019-11-28 13:00:00 12.6 2 Sudoeste 7 Sur 0.3 1010.6 -0.5 95
2019-11-28 12:00:00 12.2 2 Oeste 10 Sudoeste 0 1011.1 0.4 95
2019-11-28 11:00:00 12 2 Oeste 13 Sudoeste 0.1 1011.1 0.4 96
2019-11-28 10:00:00 11.8 3 Sudoeste 16 Sudoeste 0 1011.1 0.7 97
2019-11-28 09:00:00 11.5 8 Sudoeste 16 Sudoeste 0 1010.7 0.9 97
2019-11-28 08:00:00 11.4 6 Sudoeste 17 Sudoeste 0 1010.7 1.2 97
2019-11-28 07:00:00 11.1 8 Sudoeste 13 Sudoeste 0 1010.4 0.6 96
2019-11-28 06:00:00 11.2 3 Sur 10 Sudeste 0.1 1009.8 0.1 96
2019-11-28 05:00:00 11.5 7 Sudoeste 15 Sudoeste 0 1009.5 -0.3 95
2019-11-28 04:00:00 11.5 2 Sur 12 Sudoeste 0 1009.8 -0.1 95
2019-11-28 03:00:00 12.2 0 Calma 15 Sudoeste 0 1009.7 0.1 95
2019-11-28 02:00:00 12.6 2 Sudoeste 30 Sudoeste 0 1009.8 0.8 94
2019-11-28 01:00:00 13.4 14 Sudoeste 36 Sudoeste 0.1 1009.9 1.2 93
2019-11-28 00:00:00 13.5 16 Sudoeste 29 Sudoeste 0 1009.6 1.1 93
2019-11-27 23:00:00 13.4 18 Sudoeste 32 Sudoeste 0 1009 1 93
2019-11-27 22:00:00 13.3 19 Sudoeste 34 Sudoeste 0 1008.7 0.7 93
2019-11-27 21:00:00 12.6 14 Sudoeste 37 Sudoeste 0 1008.5 0.9 94
2019-11-27 20:00:00 12.9 21 Sudoeste 36 Sudoeste 0 1008 0.9 95
2019-11-27 19:00:00 13 21 Sudoeste 34 Sudoeste 1.1 1008 1.3 95
2019-11-27 18:00:00 13.4 18 Sudoeste 35 Sudoeste 0 1007.6 0.6 93
2019-11-27 17:00:00 12.8 21 Sudoeste 39 Sudoeste 0 1007.1 0 93
2019-11-27 16:00:00 13.5 18 Sudoeste 34 Sudoeste 0.4 1006.7 -0.8 95
2019-11-27 15:00:00 12.3 17 Sur 35 Sur 9.3 1007 -0.7 95
2019-11-27 14:00:00 13.8 22 Sudoeste 49 Sudoeste 0.1 1007.1 -0.5 90
2019-11-27 06:00:00 12.3 14 Sudoeste 46 Sudoeste 0 1005.7 0.9 92
2019-11-27 05:00:00 13.4 25 Sudoeste 49 Sudoeste 0 1005.4 1.5 88
2019-11-27 04:00:00 12.9 19 Sudoeste 35 Sudoeste 0 1005.4 1.7 93
2019-11-27 03:00:00 12.6 17 Sur 42 Sudoeste 0.7 1004.8 2 92
2019-11-27 02:00:00 13.2 32 Sudoeste 48 Sudoeste 0.2 1003.9 1.6 92
2019-11-27 01:00:00 13.1 19 Sur 39 Sudoeste 0 1003.7 2.4 93
2019-11-27 00:00:00 13.3 24 Sudoeste 55 Sudoeste 0.5 1002.8 1.8 92
2019-11-26 23:00:00 12.7 30 Sudoeste 70 Sudoeste 0 1002.3 1.7 93
2019-11-26 22:00:00 14.1 41 Sudoeste 68 Sudoeste 0 1001.3 1.6 75
2019-11-26 21:00:00 13.5 38 Sudoeste 59 Sudoeste 0.1 1001 2.7 78
2019-11-26 20:00:00 13.6 31 Sudoeste 50 Sudoeste 0 1000.6 2.9 80
2019-11-26 19:00:00 13.9 24 Sudoeste 54 Sudoeste 0 999.7 2.6 80
2019-11-26 18:00:00 13.8 35 Sudoeste 56 Sudoeste 0.1 998.3 0.5 82
2019-11-26 17:00:00 14 33 Sudoeste 84 Sudoeste 0.3 997.7 -0.3 80
2019-11-26 16:00:00 15.3 41 Sudoeste 66 Sudoeste 1.5 997.1 -2.5 82
2019-11-26 15:00:00 14.7 30 Sudoeste 55 Sudoeste 1.8 997.8 -3.1 92
2019-11-26 14:00:00 17.3 27 Sudoeste 57 Sudoeste 0 998 -4.5 73
2019-11-26 13:00:00 17 27 Sudoeste 47 Sudoeste 0 999.6 -3.3 77
2019-11-26 12:00:00 15.8 17 Sudoeste 41 Sudoeste 0 1000.9 -2.5 84
2019-11-26 11:00:00 15.6 23 Sudoeste 41 Sudoeste 0.1 1002.5 -1.2 78
2019-11-26 10:00:00 16.3 19 Sudoeste 30 Sudoeste 0 1002.9 -0.7 79
2019-11-26 09:00:00 16 17 Sudoeste 26 Sudoeste 0 1003.4 -1 82
2019-11-26 08:00:00 16.1 17 Sudoeste 32 Sudoeste 0 1003.7 -0.9 80
2019-11-26 07:00:00 16.1 20 Sudoeste 43 Sudoeste 0 1003.6 -1.4 82
2019-11-26 06:00:00 15.3 26 Sudoeste 41 Sudoeste 0 1004.4 -0.1 91
2019-11-26 05:00:00 16.2 25 Sudoeste 40 Sudoeste 0.1 1004.6 -0.2 89
2019-11-26 04:00:00 16.1 15 Sudoeste 45 Sudoeste 0 1005 -0.7 93
2019-11-26 03:00:00 15.7 21 Sur 33 Sudoeste 0 1004.5 -1.5 95
2019-11-26 02:00:00 15.9 25 Sudoeste 42 Sudoeste 0 1004.8 -2.2 92
2019-11-26 01:00:00 15.7 30 Sudoeste 51 Sudoeste 0 1005.7 -2 90
2019-11-26 00:00:00 15.7 28 Sudoeste 49 Sudoeste 0 1006 -2.7 88
2019-11-25 23:00:00 15.7 28 Sudoeste 53 Sudoeste 0.1 1007 -2 84
2019-11-25 22:00:00 15.5 27 Sudoeste 41 Sur 0 1007.7 -2.1 84
2019-11-25 21:00:00 15.2 23 Sur 45 Sudoeste 0 1008.7 -1.8 86
2019-11-25 20:00:00 14.7 25 Sudoeste 37 Sudoeste 0 1009 -1.5 86
2019-11-25 19:00:00 14.4 21 Sudoeste 32 Sudoeste 0 1009.8 -0.7 84
2019-11-25 18:00:00 14.4 18 Sudoeste 29 Sudoeste 0.1 1010.5 -0.1 82
2019-11-25 17:00:00 14.7 16 Sudoeste 26 Sudoeste 0 1010.5 -0.7 86
2019-11-25 16:00:00 14.7 15 Sudoeste 44 Sudoeste 0 1010.5 -1 82
2019-11-25 15:00:00 14.7 27 Sudoeste 40 Sudoeste 0 1010.6 -1.1 80
2019-11-25 14:00:00 14.9 16 Sudoeste 37 Sudoeste 0 1011.2 -0.4 77
2019-11-25 13:00:00 14.7 20 Sudoeste 34 Sudoeste 0 1011.5 0.8 80
2019-11-25 12:00:00 14.6 24 Sudoeste 36 Sudoeste 0.1 1011.7 1.6 82
2019-11-25 11:00:00 13.8 17 Sudoeste 32 Sudoeste 0 1011.6 2.2 91
2019-11-25 10:00:00 13.4 17 Sudoeste 28 Sudoeste 0 1010.7 1.9 94
2019-11-25 09:00:00 13.2 16 Sudoeste 28 Sur 0 1010.1 1.8 95
2019-11-25 08:00:00 13.1 12 Sur 34 Sudoeste 0.1 1009.4 1.3 95
2019-11-25 07:00:00 13.4 12 Sudoeste 19 Sur 0 1008.8 1.2 94
2019-11-25 06:00:00 13.3 4 Sudoeste 23 Sudoeste 0.1 1008.3 1.5 95
2019-11-25 05:00:00 12.9 15 Sur 35 Sudoeste 0.3 1008.1 1.2 95
2019-11-25 04:00:00 14 26 Sudoeste 44 Sudoeste 0 1007.6 1 92
2019-11-25 03:00:00 13.7 18 Sudoeste 34 Sudoeste 0.1 1006.8 0.9 93
2019-11-25 02:00:00 14.1 25 Sudoeste 42 Sudoeste 0 1006.9 1.9 93
2019-11-25 01:00:00 14.4 15 Sudoeste 32 Sudoeste 0.1 1006.6 1.7 93
2019-11-25 00:00:00 14.5 16 Sur 32 Sudoeste 0.9 1005.9 0.9 95
2019-11-24 23:00:00 14.6 10 Sudoeste 35 Sudoeste 0.1 1005 0.2 95
2019-11-24 22:00:00 14.9 21 Sudoeste 40 Sudoeste 0 1004.9 0.1 95
2019-11-24 21:00:00 14.5 19 Sudoeste 36 Sudoeste 0.2 1005 0.7 95
2019-11-24 20:00:00 14.8 21 Sudoeste 36 Sudoeste 0 1004.8 0.8 95
2019-11-24 19:00:00 14.4 17 Sur 37 Sudoeste 0.1 1004.8 0.5 95
2019-11-24 18:00:00 13.8 12 Sudoeste 38 Sudoeste 2.2 1004.3 -1.1 95
2019-11-24 17:00:00 14.2 24 Sudoeste 49 Sudoeste 0.1 1004 -2.7 93
2019-11-24 16:00:00 14.8 30 Sudoeste 48 Sur 0.1 1004.3 -3.9 88
2019-11-24 15:00:00 14.2 33 Sudoeste 50 Sudoeste 0 1005.4 -4.1 86
2019-11-24 14:00:00 13.3 27 Sur 40 Sudoeste 0 1006.7 -3.1 89
2019-11-24 13:00:00 12.6 28 Sur 48 Sudoeste 0 1008.2 -2.2 91
2019-11-24 12:00:00 12.5 30 Sudoeste 43 Sudoeste 0 1009.5 -1.1 89
2019-11-24 11:00:00 12.3 28 Sudoeste 37 Sudoeste 0 1009.8 -1.4 91
2019-11-24 10:00:00 11.3 21 Sudoeste 32 Sudoeste 0.1 1010.4 -1 93
2019-11-24 09:00:00 10.8 20 Sudoeste 28 Sur 0 1010.6 -0.9 93
2019-11-24 08:00:00 10.1 18 Sudoeste 27 Sudoeste 0 1011.2 -0.8 95
2019-11-24 07:00:00 8.9 0 Calma 6 Noroeste 0 1011.4 -1.2 95
2019-11-24 06:00:00 9.1 4 Oeste 8 Noroeste 0 1011.5 -0.9 95
2019-11-24 05:00:00 9.2 3 Noroeste 11 Sudoeste 0.1 1012 -0.3 94
2019-11-24 04:00:00 9.6 3 Sur 11 Sudoeste 0 1012.6 0.7 94
2019-11-24 03:00:00 9.5 3 Oeste 12 Sudoeste 0 1012.4 0.7 94
2019-11-24 02:00:00 10.3 4 Sudoeste 9 Sudoeste 0 1012.3 0.6 93
2019-11-24 01:00:00 10.8 6 Sudoeste 21 Sudoeste 0 1011.9 0.5 94
2019-11-24 00:00:00 10.2 8 Sudoeste 17 Sur 0 1011.7 0.5 94
2019-11-23 23:00:00 10.7 2 Sur 13 Sur 0.1 1011.7 0.8 93
2019-11-23 22:00:00 11.2 5 Sur 13 Sudeste 0 1011.4 1.3 92
2019-11-23 21:00:00 10.3 3 Sudeste 10 Este 0 1011.2 2.1 92
2019-11-23 20:00:00 11.2 3 Sudeste 15 Noroeste 0 1010.9 2.5 90
2019-11-23 19:00:00 10.8 2 Nordeste 14 Norte 0 1010.1 2.5 90
2019-11-23 18:00:00 11.6 2 Este 15 Noroeste 0.1 1009.1 1.9 88
2019-11-23 17:00:00 12.8 6 Norte 27 Norte 0 1008.4 1.6 84
2019-11-23 16:00:00 13.4 9 Norte 23 Norte 0 1007.6 1.1 79
2019-11-23 15:00:00 13.4 0 Calma 22 Norte 0.1 1007.2 1.1 84
2019-11-23 14:00:00 13.5 8 Norte 22 Norte 0.1 1006.8 1.9 84
2019-11-23 13:00:00 13 6 Norte 27 Noroeste 0.5 1006.5 2.4 81
2019-11-23 12:00:00 13.2 6 Norte 30 Norte 1 1006.1 3.3 82
2019-11-23 11:00:00 13.3 6 Noroeste 26 Norte 0 1004.9 3.3 78
2019-11-23 10:00:00 12 4 Norte 25 Norte 0.1 1004.1 3.5 84
2019-11-23 09:00:00 11.1 10 Norte 27 Norte 0 1002.8 3.5 86
2019-11-23 08:00:00 10.2 3 Noroeste 27 Norte 0.4 1001.6 3.4 91
2019-11-23 07:00:00 10.2 9 Norte 41 Norte 0.3 1000.6 3.3 91
2019-11-23 06:00:00 12.1 11 Norte 29 Noroeste 0.1 999.3 3.3 75
2019-11-23 05:00:00 11.7 8 Norte 33 Noroeste 0 998.2 3.4 79
2019-11-23 04:00:00 11.2 10 Norte 41 Norte 0 997.3 3.8 74
2019-11-23 03:00:00 11.8 16 Norte 40 Noroeste 0 996 4.4 71
2019-11-23 02:00:00 11.8 18 Norte 43 Norte 0 994.8 5.1 69
2019-11-23 01:00:00 11.9 19 Norte 50 Norte 0.1 993.5 6.2 71
2019-11-23 00:00:00 11.8 19 Norte 52 Norte 0.6 991.6 6.6 78
2019-11-22 23:00:00 11 12 Norte 54 Norte 3.7 989.7 6.3 95
2019-11-22 22:00:00 11.2 13 Norte 54 Noroeste 2.9 987.3 5.5 95
2019-11-22 21:00:00 10.9 20 Norte 47 Norte 7.4 985 3.8 95
2019-11-22 20:00:00 12.4 13 Sur 39 Sudeste 0.9 983.4 2.9 95
2019-11-22 19:00:00 13.3 19 Sur 47 Sudoeste 1.5 981.8 1.2 94
2019-11-22 18:00:00 13.1 13 Sur 57 Sudoeste 0.3 981.2 -0.4 94
2019-11-22 17:00:00 12.3 25 Sudoeste 64 Sudoeste 2.6 980.5 -1.7 93
2019-11-22 16:00:00 13.2 30 Sudoeste 51 Sudoeste 0 980.6 -2.4 81
2019-11-22 15:00:00 12.9 28 Sudoeste 58 Sudoeste 0 981.6 -1.6 82
2019-11-22 14:00:00 13.8 31 Sudoeste 57 Sudoeste 0.1 982.2 0.1 86
2019-11-22 13:00:00 14.1 26 Sudoeste 47 Sur 0.1 983 2.5 86
2019-11-22 12:00:00 14.2 14 Sur 36 Sur 0.4 983.2 1.7 94
2019-11-22 11:00:00 13.3 10 Sur 67 Sudoeste 1 982.1 -1.4 95
2019-11-22 10:00:00 12.7 17 Sudoeste 39 Sur 2.4 980.5 -5 95
2019-11-22 09:00:00 12.1 17 Sudoeste 30 Sur 3.2 981.5 -5.3 95
2019-11-22 08:00:00 11.9 18 Sudoeste 37 Sur 3.6 983.5 -4.6 95
2019-11-22 07:00:00 11.4 15 Sudoeste 35 Sudoeste 1.3 985.5 -4.7 93
2019-11-22 06:00:00 11 21 Sudoeste 45 Sur 0.9 986.8 -6.4 92
2019-11-22 05:00:00 11.4 26 Sur 44 Sur 0.9 988.1 -7 87
2019-11-22 04:00:00 11.1 19 Sur 31 Sur 1.2 990.2 -6.9 89
2019-11-22 03:00:00 10.6 15 Sudoeste 36 Sudoeste 1.7 993.2 -5.3 89
2019-11-22 02:00:00 11.1 19 Sudoeste 28 Sur 0.2 995.1 -4.5 88
2019-11-22 01:00:00 11.1 16 Sudoeste 30 Sudoeste 0.1 997.1 -3.5 89
2019-11-22 00:00:00 11 15 Sudoeste 29 Sudoeste 0 998.5 -2.6 89
2019-11-21 23:00:00 11.3 17 Sudoeste 24 Sur 0.1 999.6 -2.2 87
2019-11-21 22:00:00 11.1 15 Sudoeste 22 Sudoeste 0 1000.6 -1.5 88
2019-11-21 21:00:00 11 14 Sudoeste 25 Sudoeste 0 1001.1 -1.1 89
2019-11-21 20:00:00 11 15 Sudoeste 23 Sudoeste 0 1001.8 -0.6 89
2019-11-21 19:00:00 11.1 16 Sudoeste 22 Sudoeste 0 1002.1 -0.1 87
2019-11-21 18:00:00 10.8 11 Sudoeste 37 Sudoeste 0.1 1002.2 -0.3 91
2019-11-21 17:00:00 12.7 15 Sur 29 Sudoeste 0 1002.4 -0.2 78
2019-11-21 16:00:00 14 14 Sudoeste 33 Sudoeste 0 1002.2 -1 71
2019-11-21 15:00:00 14.1 20 Sudoeste 36 Sudoeste 0.1 1002.5 -1.1 73
2019-11-21 14:00:00 14.3 20 Sudoeste 39 Sudoeste 0 1002.6 -1.1 74
2019-11-21 13:00:00 13.2 12 Sudoeste 54 Sur 0.2 1003.2 -0.4 82
2019-11-21 12:00:00 12.6 17 Sur 22 Sudoeste 0 1003.6 0 87
2019-11-21 11:00:00 10.4 9 Sudoeste 19 Sudoeste 0 1003.7 0.6 93
2019-11-21 10:00:00 8.9 6 Sudoeste 16 Oeste 0 1003.6 0.8 95
2019-11-21 09:00:00 7.8 5 Sudoeste 19 Sudoeste 0.3 1003.6 1.2 95
2019-11-21 08:00:00 -- -- -- -- -- -- -- -- --
2019-11-21 07:00:00 -- -- -- -- -- -- -- -- --
2019-11-21 06:00:00 -- -- -- -- -- -- -- -- --
2019-11-21 05:00:00 -- -- -- -- -- -- -- -- --
2019-11-21 04:00:00 -- -- -- -- -- -- -- -- --
2019-11-21 03:00:00 -- -- -- -- -- -- -- -- --
2019-11-21 02:00:00 -- -- -- -- -- -- -- -- --
2019-11-21 01:00:00 -- -- -- -- -- -- -- -- --
2019-11-21 00:00:00 -- -- -- -- -- -- -- -- --
2019-11-20 23:00:00 -- -- -- -- -- -- -- -- --
2019-11-20 22:00:00 -- -- -- -- -- -- -- -- --
2019-11-20 21:00:00 -- -- -- -- -- -- -- -- --
2019-11-20 20:00:00 -- -- -- -- -- -- -- -- --
2019-11-20 19:00:00 9.5 0 Calma 48 Sur 0.5 1002.4 0.2 93
2019-11-20 18:00:00 10.7 17 Sudoeste 36 Sur 0 1002.1 -0.3 86
2019-11-20 17:00:00 11.3 15 Sudoeste 28 Sur 0 1002.1 -0.9 86
2019-11-20 16:00:00 11.4 15 Sudoeste 29 Sudoeste 0 1002.2 -1.4 86
2019-11-20 15:00:00 11.2 20 Sudoeste 38 Sur 0.1 1002.4 -2.4 84
2019-11-20 14:00:00 11.5 24 Sudoeste 37 Sudoeste 0.1 1003 -2.2 84
2019-11-20 13:00:00 10.6 22 Sur 37 Sudoeste 0.5 1003.6 -1.8 88
2019-11-20 12:00:00 9.7 11 Sudoeste 22 Sudoeste 0.5 1004.8 -0.3 91
2019-11-20 11:00:00 9.6 14 Sudoeste 24 Sur 0 1005.2 0.1 89
2019-11-20 10:00:00 9.4 4 Sudoeste 24 Sur 0 1005.4 -0.1 88
2019-11-20 09:00:00 9.6 15 Sudoeste 24 Sudoeste 0 1005.1 -1 86
2019-11-20 08:00:00 9.2 11 Sudoeste 21 Sudoeste 0.1 1005.1 -1.3 92
2019-11-20 07:00:00 8.1 3 Sudoeste 20 Sudoeste 0 1005.5 -1.8 97
2019-11-20 06:00:00 8.1 4 Noroeste 9 Oeste 0 1006.1 -1.5 97
2019-11-20 05:00:00 7.4 3 Noroeste 6 Este 0 1006.4 -2.1 97
2019-11-20 04:00:00 7.3 0 Calma 11 Sudoeste 0 1007.3 -2 97
2019-11-20 03:00:00 6.8 0 Calma 6 Nordeste 0 1007.6 -1.9 97
2019-11-20 02:00:00 7.8 0 Calma 5 Nordeste 0.1 1008.5 -1.7 97
2019-11-20 01:00:00 8.3 2 Oeste 6 Oeste 0 1009.3 -1.1 97
2019-11-20 00:00:00 7.6 4 Nordeste 7 Nordeste 0 1009.5 -1.4 97
2019-11-19 23:00:00 7.9 0 Calma 5 Sudoeste 0 1010.2 -0.9 97
2019-11-19 22:00:00 9.3 5 Oeste 13 Sudoeste 0 1010.4 -0.8 97
2019-11-19 21:00:00 9.9 4 Sudoeste 9 Sudoeste 0.1 1010.9 -0.2 97
2019-11-19 20:00:00 10.2 2 Oeste 8 Sur 0 1011.1 -0.1 97
2019-11-19 19:00:00 10.3 0 Calma 8 Oeste 0.1 1011.2 -0.5 97
2019-11-19 18:00:00 10.2 0 Calma 8 Sudoeste 0.2 1011.1 -0.9 97
2019-11-19 17:00:00 10.3 4 Sur 8 Sudoeste 0.7 1011.2 -1.1 97
2019-11-19 16:00:00 10.3 5 Sudoeste 19 Sudoeste 1 1011.7 -1.4 96
2019-11-19 15:00:00 10.5 14 Sudoeste 23 Sudoeste 0.3 1012 -1.8 95
2019-11-19 14:00:00 9.9 5 Sudoeste 18 Sur 2.5 1012.3 -1.8 95
2019-11-19 13:00:00 9.6 13 Sudoeste 22 Sudoeste 2.8 1013.1 -1.2 95
2019-11-19 12:00:00 9.9 17 Sudoeste 30 Sudoeste 1.4 1013.8 -0.4 93
2019-11-19 11:00:00 10 19 Sudoeste 28 Sudoeste 0.1 1014.1 -0.2 89
2019-11-19 10:00:00 9.7 15 Sudoeste 24 Sudoeste 0 1014.3 0.2 89
2019-11-19 09:00:00 9.1 13 Sudoeste 26 Sudoeste 0 1014.2 -0.5 89
2019-11-19 08:00:00 9.2 18 Sudoeste 23 Sudoeste 0 1014.3 -1.1 88
2019-11-19 07:00:00 8.5 11 Sudoeste 16 Sudoeste 0.1 1014.1 -1.9 97
2019-11-19 06:00:00 7.4 0 Calma 11 Sudoeste 0 1014.7 -1.8 97
2019-11-19 05:00:00 7.2 5 Sudoeste 10 Sudoeste 0 1015.4 -1.6 97
2019-11-19 04:00:00 7.2 3 Oeste 12 Sudoeste 0 1016 -1.5 97
2019-11-19 03:00:00 7.3 0 Calma 12 Noroeste 0 1016.5 -1.4 97
2019-11-19 02:00:00 7 4 Oeste 9 Oeste 0 1017 -1.2 97
2019-11-19 01:00:00 6.6 0 Calma 4 Sudoeste 0 1017.5 -1.2 97
2019-11-19 00:00:00 6.6 0 Calma 5 Nordeste 0.1 1017.9 -0.9 97
2019-11-18 23:00:00 6.8 2 Nordeste 6 Nordeste 0 1018.2 -0.2 97
2019-11-18 22:00:00 7.1 4 Nordeste 6 Nordeste 0 1018.7 0.3 97
2019-11-18 21:00:00 7.5 0 Calma 3 Nordeste 0 1018.8 0.3 97
2019-11-18 20:00:00 8.1 0 Calma 5 Norte 0 1018.4 0 95
2019-11-18 19:00:00 9.2 3 Norte 5 Norte 0 1018.4 0.1 93
2019-11-18 18:00:00 10.9 3 Noroeste 5 Oeste 0 1018.5 0 93
2019-11-18 17:00:00 12.2 0 Calma 9 Sudoeste 0.1 1018.4 -0.4 89
2019-11-18 16:00:00 12.4 6 Sudoeste 12 Sudoeste 0 1018.3 -1 86
2019-11-18 15:00:00 12.4 5 Oeste 7 Oeste 0 1018.5 -1.1 86
2019-11-18 14:00:00 13 0 Calma 7 Sur 0 1018.8 -1 83
2019-11-18 13:00:00 12.7 0 Calma 6 Sur 0 1019.3 -0.2 89
2019-11-18 12:00:00 10.9 2 Sur 15 Sudoeste 0.1 1019.6 0.6 97
2019-11-18 11:00:00 8.8 12 Sudoeste 15 Sudoeste 0.5 1019.8 1.5 97
2019-11-18 10:00:00 8.5 9 Sudoeste 14 Sudoeste 0.6 1019.5 1.6 97
2019-11-18 09:00:00 8.2 6 Sudoeste 10 Sudoeste 0.1 1019 1.4 97
2019-11-18 08:00:00 7.8 2 Oeste 10 Sur 0 1018.3 1.2 97
2019-11-18 07:00:00 7.9 7 Sudoeste 11 Oeste 0.1 1017.9 1.1 97
2019-11-18 06:00:00 7.9 2 Oeste 8 Oeste 0 1017.6 1.4 97
2019-11-18 05:00:00 8.3 2 Noroeste 6 Sur 0.8 1017.1 0.6 97
2019-11-18 04:00:00 8 3 Noroeste 9 Sudeste 0.1 1016.8 0.7 97
2019-11-18 03:00:00 8.7 0 Calma 15 Norte 0.7 1016.2 0.4 95
2019-11-18 02:00:00 8.5 10 Nordeste 29 Norte 1.2 1016.5 1 95
2019-11-18 01:00:00 9 2 Oeste 8 Nordeste 0.4 1016.1 0.8 95
2019-11-18 00:00:00 9.4 0 Calma 13 Nordeste 0.1 1015.8 1.1 95
2019-11-17 23:00:00 10.3 8 Norte 16 Norte 0.1 1015.5 1.7 88
2019-11-17 22:00:00 10.3 11 Norte 32 Nordeste 0.1 1015.3 2.3 91
2019-11-17 21:00:00 11.4 17 Nordeste 32 Nordeste 0 1014.7 2.4 84
2019-11-17 20:00:00 11 9 Norte 24 Norte 0 1013.8 1.4 88
2019-11-17 19:00:00 11 11 Norte 28 Noroeste 0.3 1013 0.7 92
2019-11-17 18:00:00 11.7 17 Norte 32 Norte 0.1 1012.3 -0.2 88
2019-11-17 17:00:00 11.1 5 Sudoeste 28 Norte 0.7 1012.4 -0.3 90
2019-11-17 16:00:00 10.9 13 Norte 34 Norte 1.9 1012.3 -0.9 86
2019-11-17 15:00:00 13 10 Noroeste 28 Noroeste 0.7 1012.5 -0.9 80
2019-11-17 14:00:00 13.6 9 Norte 26 Norte 0.1 1012.7 -0.5 73
2019-11-17 13:00:00 11.5 5 Noroeste 30 Noroeste 1 1013.2 0.4 77
2019-11-17 12:00:00 12.3 13 Norte 28 Norte 0.1 1013.4 0.9 75
2019-11-17 11:00:00 11.4 7 Sudoeste 22 Norte 0 1013.2 1.2 92
2019-11-17 10:00:00 11.5 2 Noroeste 20 Norte 0 1012.8 1 92
2019-11-17 09:00:00 10.5 2 Oeste 10 Sudoeste 0.1 1012.5 0.7 95
2019-11-17 08:00:00 10.6 0 Calma 14 Sur 0 1012 0.3 96
2019-11-17 07:00:00 10.7 5 Norte 24 Noroeste 3.3 1011.8 0.4 95
2019-11-17 06:00:00 11.3 5 Norte 20 Noroeste 0.8 1011.8 -0.4 95
2019-11-17 05:00:00 10.6 2 Noroeste 22 Sudoeste 1.1 1011.7 -1.1 96
2019-11-17 04:00:00 10.6 12 Sudoeste 21 Sur 0 1011.4 -1.8 95
2019-11-17 03:00:00 10.4 14 Sudoeste 20 Sudoeste 0 1012.2 -1.3 95
2019-11-17 02:00:00 10.4 11 Sudoeste 17 Sur 0 1012.8 -1.2 95
2019-11-17 01:00:00 10.1 9 Sudoeste 23 Sur 0 1013.2 -1.5 95
2019-11-17 00:00:00 10.1 9 Sudoeste 18 Sudoeste 0.1 1013.5 -1.3 95
2019-11-16 23:00:00 9.9 10 Sudoeste 18 Sudoeste 0 1014 -0.9 95
2019-11-16 22:00:00 9.2 10 Sudoeste 15 Sudoeste 0 1014.7 -0.6 95
2019-11-16 21:00:00 9 2 Oeste 13 Sudoeste 0 1014.8 -0.8 95
2019-11-16 20:00:00 9.2 9 Sudoeste 14 Sudoeste 0.1 1014.9 -0.8 95
2019-11-16 19:00:00 9.1 3 Sudoeste 17 Sudoeste 0.2 1015.3 -0.2 95
2019-11-16 18:00:00 9.2 12 Sudoeste 28 Sudoeste 2 1015.6 0.2 95
2019-11-16 17:00:00 9.8 8 Sur 31 Sudoeste 0.5 1015.7 0 93
2019-11-16 16:00:00 10.8 11 Sudoeste 37 Sudoeste 0.3 1015.5 -1.1 84
2019-11-16 15:00:00 11.3 12 Sudoeste 27 Sudoeste 0 1015.4 -1.3 78
2019-11-16 14:00:00 11.7 12 Sudoeste 19 Sudoeste 0 1015.7 -0.9 78
2019-11-16 13:00:00 10.9 6 Norte 15 Norte 0.1 1016.6 0 72
2019-11-16 12:00:00 10.1 9 Sudoeste 17 Sur 0 1016.7 0.8 86
2019-11-16 11:00:00 8.7 11 Sudoeste 17 Sudoeste 0 1016.6 0.9 94
2019-11-16 10:00:00 7.2 8 Sudoeste 22 Sudoeste 0 1016.6 1.1 97
2019-11-16 09:00:00 7 14 Sudoeste 21 Sudoeste 0.1 1015.9 0.9 97
2019-11-16 08:00:00 6.8 15 Sudoeste 24 Sudoeste 0 1015.7 1 97
2019-11-16 07:00:00 5.4 4 Sudoeste 15 Sudoeste 0 1015.5 0.8 97
2019-11-16 06:00:00 6.3 11 Sudoeste 16 Sudoeste 0 1015 0.3 96
2019-11-16 05:00:00 7.2 12 Sudoeste 17 Sudoeste 0.1 1014.7 0.2 95
2019-11-16 04:00:00 7.2 0 Calma 9 Sudoeste 0.2 1014.7 0.5 95
2019-11-16 03:00:00 7.7 4 Norte 28 Nordeste 3.1 1014.7 1.3 93
2019-11-16 02:00:00 8.9 8 Norte 28 Norte 0 1014.5 1.4 84
2019-11-16 01:00:00 9.5 19 Norte 37 Nordeste 0 1014.2 1.6 80
2019-11-16 00:00:00 9.8 10 Norte 36 Noroeste 0 1013.4 1.2 84
2019-11-15 23:00:00 9.2 11 Norte 21 Norte 0.1 1013.1 1.5 88
2019-11-15 22:00:00 7.7 8 Noroeste 34 Norte 0.7 1012.6 0.8 91
2019-11-15 21:00:00 9.3 26 Norte 49 Nordeste 0 1012.2 1.1 78
2019-11-15 20:00:00 8.7 18 Norte 46 Norte 2.9 1011.6 1.3 88
2019-11-15 19:00:00 7.8 20 Norte 42 Norte 1 1011.8 1.7 88
2019-11-15 18:00:00 8.3 14 Norte 55 Nordeste 1.1 1011.1 1.2 80
2019-11-15 17:00:00 9.2 15 Norte 56 Nordeste 0.3 1010.3 -0.4 84
2019-11-15 16:00:00 9.6 23 Norte 43 Nordeste 0.1 1010.1 -0.6 80
2019-11-15 15:00:00 9.1 12 Norte 49 Nordeste 1.3 1009.9 -0.8 86
2019-11-15 14:00:00 9.3 21 Norte 59 Nordeste 0 1010.7 0 78
2019-11-15 13:00:00 9.6 29 Norte 55 Nordeste 0.3 1010.7 -0.1 80
2019-11-15 12:00:00 11.8 17 Norte 38 Norte 0 1010.7 0.6 57
2019-11-15 11:00:00 10.5 14 Norte 36 Nordeste 0 1010.7 0.6 60
2019-11-15 10:00:00 8.7 7 Norte 46 Norte 0 1010.8 1.1 73
2019-11-15 09:00:00 9.1 11 Norte 39 Nordeste 0 1010.1 0.9 69
2019-11-15 08:00:00 8.4 23 Norte 50 Norte 0 1010.1 1.2 75
2019-11-15 07:00:00 8.2 22 Norte 49 Norte 0 1009.7 0.8 75
2019-11-15 06:00:00 9.4 13 Norte 44 Norte 0 1009.2 0.6 60
2019-11-15 05:00:00 9.8 15 Norte 36 Nordeste 0 1008.9 0.1 60
2019-11-15 04:00:00 9.2 12 Norte 31 Nordeste 0 1008.9 0.1 77
2019-11-15 03:00:00 8.3 19 Norte 45 Nordeste 0 1008.6 0 77
2019-11-15 02:00:00 8.8 19 Norte 60 Nordeste 0.6 1008.8 0.5 80
2019-11-15 01:00:00 7.8 19 Norte 65 Nordeste 2.5 1008.8 1.2 84
2019-11-15 00:00:00 10 23 Norte 56 Nordeste 0.1 1008.6 1.2 60
2019-11-14 23:00:00 10.2 21 Norte 45 Norte 0 1008.3 1.2 62
2019-11-14 22:00:00 10.6 16 Norte 47 Nordeste 0 1007.6 1.1 62
2019-11-14 21:00:00 10.2 20 Norte 47 Nordeste 0.1 1007.4 1.9 62
2019-11-14 20:00:00 11 23 Norte 53 Norte 0 1007.1 2.8 58
2019-11-14 19:00:00 11.2 22 Norte 50 Norte 0 1006.5 2.6 63
2019-11-14 18:00:00 11.2 21 Norte 52 Norte 0 1005.5 2.4 68
2019-11-14 17:00:00 10.7 17 Norte 60 Noroeste 1.3 1004.3 2.8 84
2019-11-14 16:00:00 9.8 19 Norte 58 Nordeste 0.2 1003.9 3.6 84
2019-11-14 15:00:00 11 22 Norte 60 Norte 0.4 1003.1 2.9 80
2019-11-14 14:00:00 10.5 28 Norte 69 Noroeste 0.1 1001.5 2.4 82
2019-11-14 13:00:00 9.6 24 Norte 56 Nordeste 1.5 1000.3 0.2 90
2019-11-14 12:00:00 9.5 14 Norte 57 Nordeste 1.4 1000.2 0.1 87
2019-11-14 11:00:00 9.7 11 Norte 39 Norte 1.2 999.1 -3.6 87
2019-11-14 10:00:00 10.3 18 Norte 45 Norte 2.3 1000.1 -3.3 73
2019-11-14 09:00:00 7.6 15 Sur 38 Sur 2.9 1000.1 -4.9 93
2019-11-14 08:00:00 6.9 8 Oeste 44 Sudoeste 6.3 1002.7 -2.8 89
2019-11-14 07:00:00 8.5 6 Sudeste 26 Sudoeste 0 1003.4 -4.2 86
2019-11-14 06:00:00 6 2 Sudoeste 22 Norte 2.4 1005 -2.2 95
2019-11-14 05:00:00 7 5 Norte 26 Norte 0.8 1005.5 -3 92
2019-11-14 04:00:00 8.7 14 Norte 40 Norte 0.1 1007.6 -1.3 64
2019-11-14 03:00:00 8.7 0 Calma 44 Norte 0 1007.2 -1.9 80
2019-11-14 02:00:00 8.5 9 Norte 40 Norte 0.1 1008.5 -0.6 87
2019-11-14 01:00:00 9.1 20 Norte 63 Norte 0.2 1008.9 -0.4 84
2019-11-14 00:00:00 8.9 18 Norte 43 Noroeste 0.6 1009.1 -0.4 91
2019-11-13 23:00:00 10.4 8 Norte 31 Norte 0.4 1009.1 -1 93
2019-11-13 22:00:00 11 10 Norte 26 Norte 1.1 1009.3 -1.3 95
2019-11-13 21:00:00 11.3 6 Nordeste 33 Norte 5.1 1009.5 -2.2 95
2019-11-13 20:00:00 11.9 15 Sudoeste 55 Sudoeste 3.2 1010.1 -2.4 92
2019-11-13 19:00:00 12.6 24 Sudoeste 46 Sudoeste 0.1 1010.6 -2.4 91
2019-11-13 18:00:00 12.5 13 Sur 43 Sudoeste 0 1011.7 -1.9 91
2019-11-13 17:00:00 13.2 18 Sudoeste 34 Sudoeste 0 1012.5 -1.8 81
2019-11-13 16:00:00 13.3 17 Sudoeste 36 Sudoeste 0 1013 -2.3 84
2019-11-13 15:00:00 13.5 12 Sudoeste 27 Sudoeste 0.1 1013.6 -2.4 77
2019-11-13 14:00:00 14.2 8 Sudoeste 21 Sudoeste 0 1014.3 -1.2 78
2019-11-13 13:00:00 12.7 6 Sur 22 Noroeste 0 1015.3 0.5 84
2019-11-13 12:00:00 12.8 3 Noroeste 11 Norte 0 1016 1.7 82
2019-11-13 11:00:00 12.2 0 Calma 3 Sur 0.1 1015.5 1.8 95
2019-11-13 10:00:00 11.6 0 Calma 4 Norte 0 1014.8 2.1 95
2019-11-13 09:00:00 11.4 3 Norte 10 Norte 0 1014.3 2.7 95
2019-11-13 08:00:00 11.2 5 Norte 12 Norte 0 1013.7 3.3 95
2019-11-13 07:00:00 11.3 8 Norte 20 Norte 0 1012.7 2.9 95
2019-11-13 06:00:00 11.5 11 Norte 33 Norte 0.1 1011.6 2.8 97
2019-11-13 05:00:00 11.9 19 Norte 33 Nordeste 0 1010.4 2.7 97
2019-11-13 04:00:00 12.6 17 Norte 27 Norte 0 1009.8 3.3 97
2019-11-13 03:00:00 12.4 18 Nordeste 32 Norte 0 1008.8 2.9 97
2019-11-13 02:00:00 12.9 13 Norte 28 Nordeste 0.1 1007.7 2.2 97
2019-11-13 01:00:00 13.1 7 Norte 18 Norte 0 1006.5 1.6 97
2019-11-13 00:00:00 13.3 8 Norte 18 Norte 1.3 1005.9 0.5 97
2019-11-12 23:00:00 14.1 9 Norte 25 Nordeste 2.6 1005.5 -0.5 97
2019-11-12 22:00:00 15.4 10 Sur 23 Sudoeste 1.9 1004.9 -1.4 97
2019-11-12 21:00:00 15.3 11 Sur 30 Sudoeste 1 1005.4 -0.9 97
2019-11-12 20:00:00 15.2 12 Sur 31 Sur 1.1 1006 -0.9 97
2019-11-12 19:00:00 15.1 17 Sur 43 Sur 2.2 1006.3 -1.5 97
2019-11-12 18:00:00 15 18 Sur 37 Sur 4.6 1006.3 -2.8 97
2019-11-12 17:00:00 14.8 18 Sur 42 Sur 4 1006.9 -3.9 97
2019-11-12 16:00:00 13.2 12 Sur 28 Sur 11.5 1007.8 -4.8 97
2019-11-12 15:00:00 11.8 16 Sur 26 Sudoeste 5.5 1009.1 -5.2 97
2019-11-12 14:00:00 11.7 20 Sudoeste 34 Sur 2.9 1010.8 -4.6 97
2019-11-12 13:00:00 11.5 22 Sudoeste 34 Sur 0.6 1012.6 -3.8 97
2019-11-12 12:00:00 10.8 21 Sudoeste 29 Sur 0.5 1014.3 -2.9 97
2019-11-12 11:00:00 10.4 21 Sudoeste 28 Sudoeste 0.3 1015.4 -2 97
2019-11-12 10:00:00 9.9 14 Sudoeste 22 Sur 0.8 1016.4 -1.5 97
2019-11-12 09:00:00 10 5 Sudoeste 19 Sur 0.1 1017.2 -1.2 97
2019-11-12 08:00:00 10.7 9 Sudoeste 19 Sudoeste 0.2 1017.4 -1.1 97
2019-11-12 07:00:00 10.5 6 Sur 17 Sudoeste 1 1017.9 -1.2 95
2019-11-12 06:00:00 10.1 9 Sudoeste 15 Sur 0.1 1018.4 -1.3 95
2019-11-12 05:00:00 10.4 10 Sudoeste 15 Sur 0 1018.5 -1.6 94
2019-11-12 04:00:00 10.2 5 Sudoeste 15 Sur 0 1019.1 -2.1 93
2019-11-12 03:00:00 9.8 7 Sudoeste 16 Sudoeste 0.1 1019.7 -1.9 93
2019-11-12 02:00:00 9.8 10 Sudoeste 15 Sudoeste 0 1020.1 -1.7 93
2019-11-12 01:00:00 9.8 9 Sudoeste 17 Sudoeste 0 1021.2 -0.6 93
2019-11-12 00:00:00 9.9 8 Sudoeste 15 Sudoeste 0 1021.6 0.1 93
2019-11-11 23:00:00 10.2 9 Sudoeste 16 Sudoeste 0 1021.8 0.2 93
2019-11-11 22:00:00 10 2 Noroeste 6 Sur 0 1021.8 0.3 93
2019-11-11 21:00:00 10.7 3 Sur 12 Nordeste 0 1021.5 0.1 92
2019-11-11 20:00:00 10.6 2 Noroeste 6 Noroeste 0 1021.6 0.4 92
2019-11-11 19:00:00 10.6 0 Calma 10 Noroeste 0 1021.5 0.3 88
2019-11-11 18:00:00 11.7 4 Noroeste 10 Norte 0 1021.4 0.3 86
2019-11-11 17:00:00 12.3 2 Noroeste 15 Nordeste 0 1021.2 -0.4 80
2019-11-11 16:00:00 13.7 12 Norte 25 Nordeste 0.1 1021.2 -0.4 64
2019-11-11 15:00:00 14.2 13 Nordeste 28 Nordeste 0 1021.1 -0.5 64
2019-11-11 14:00:00 13.9 14 Norte 27 Nordeste 0 1021.6 0.4 69
2019-11-11 13:00:00 13.7 12 Nordeste 25 Nordeste 0.1 1021.6 0.9 72
2019-11-11 12:00:00 13.7 14 Norte 24 Nordeste 0 1021.6 1.8 68
2019-11-11 11:00:00 12.8 14 Norte 27 Norte 0.1 1021.2 2.4 77
2019-11-11 10:00:00 12.6 10 Norte 27 Norte 0.1 1020.7 2.9 87
2019-11-11 09:00:00 12.9 12 Norte 27 Norte 0.1 1019.8 2.7 89
2019-11-11 08:00:00 13 10 Norte 40 Norte 0.3 1018.8 1.8 97
2019-11-11 07:00:00 13.6 12 Norte 30 Norte 0.9 1017.8 0.3 97
2019-11-11 06:00:00 14.5 15 Norte 29 Noroeste 0.3 1017.1 -0.9 97
2019-11-11 05:00:00 10.9 0 Calma 14 Sudoeste 1.8 1017 -0.9 97
2019-11-11 04:00:00 10.7 8 Sudoeste 16 Sudoeste 2.2 1017.5 -1.3 97
2019-11-11 03:00:00 10.4 11 Sudoeste 25 Sudoeste 1 1018 -0.5 97
2019-11-11 02:00:00 10.4 17 Sudoeste 24 Sudoeste 0.1 1017.9 -1.5 97
2019-11-11 01:00:00 10.1 13 Sudoeste 23 Sudoeste 0 1018.8 -1.2 97
2019-11-11 00:00:00 9.8 16 Sudoeste 27 Sudoeste 0.1 1018.5 -1.4 97